sensor_id;sensor_type;location;lat;lon;timestamp;P1;durP1;ratioP1;P2;durP2;ratioP2
19804;SDS011;10062;51.052;13.756;2022-12-07T00:02:22;18.47;;;9.63;;
19804;SDS011;10062;51.052;13.756;2022-12-07T00:04:54;14.33;;;8.73;;
19804;SDS011;10062;51.052;13.756;2022-12-07T00:07:26;16.93;;;8.87;;
19804;SDS011;10062;51.052;13.756;2022-12-07T00:09:58;16.63;;;8.37;;
19804;SDS011;10062;51.052;13.756;2022-12-07T00:12:29;21.20;;;9.87;;
19804;SDS011;10062;51.052;13.756;2022-12-07T00:15:01;16.90;;;8.87;;
19804;SDS011;10062;51.052;13.756;2022-12-07T00:17:35;16.07;;;8.67;;
19804;SDS011;10062;51.052;13.756;2022-12-07T00:20:07;18.07;;;9.53;;
19804;SDS011;10062;51.052;13.756;2022-12-07T00:22:39;15.73;;;8.13;;
19804;SDS011;10062;51.052;13.756;2022-12-07T00:25:11;16.13;;;8.47;;
19804;SDS011;10062;51.052;13.756;2022-12-07T00:27:43;16.27;;;8.40;;
19804;SDS011;10062;51.052;13.756;2022-12-07T00:30:14;14.27;;;8.10;;
19804;SDS011;10062;51.052;13.756;2022-12-07T00:32:48;14.10;;;8.27;;
19804;SDS011;10062;51.052;13.756;2022-12-07T00:35:20;18.27;;;8.60;;
19804;SDS011;10062;51.052;13.756;2022-12-07T00:37:51;17.93;;;9.27;;
19804;SDS011;10062;51.052;13.756;2022-12-07T00:40:23;14.43;;;7.43;;
19804;SDS011;10062;51.052;13.756;2022-12-07T00:42:55;15.43;;;8.20;;
19804;SDS011;10062;51.052;13.756;2022-12-07T00:45:27;16.67;;;8.47;;
19804;SDS011;10062;51.052;13.756;2022-12-07T00:48:00;18.27;;;8.73;;
19804;SDS011;10062;51.052;13.756;2022-12-07T00:50:32;17.40;;;9.20;;
19804;SDS011;10062;51.052;13.756;2022-12-07T00:53:03;18.80;;;9.30;;
19804;SDS011;10062;51.052;13.756;2022-12-07T00:55:35;16.83;;;7.73;;
19804;SDS011;10062;51.052;13.756;2022-12-07T00:58:07;18.80;;;9.37;;
19804;SDS011;10062;51.052;13.756;2022-12-07T01:00:41;16.80;;;7.73;;
19804;SDS011;10062;51.052;13.756;2022-12-07T01:03:15;17.97;;;9.43;;
19804;SDS011;10062;51.052;13.756;2022-12-07T01:05:51;16.37;;;7.63;;
19804;SDS011;10062;51.052;13.756;2022-12-07T01:08:24;16.03;;;8.20;;
19804;SDS011;10062;51.052;13.756;2022-12-07T01:10:58;17.97;;;8.77;;
19804;SDS011;10062;51.052;13.756;2022-12-07T01:13:31;18.53;;;9.37;;
19804;SDS011;10062;51.052;13.756;2022-12-07T01:16:04;20.97;;;9.90;;
19804;SDS011;10062;51.052;13.756;2022-12-07T01:18:38;16.93;;;9.57;;
19804;SDS011;10062;51.052;13.756;2022-12-07T01:21:11;18.40;;;9.57;;
19804;SDS011;10062;51.052;13.756;2022-12-07T01:23:44;19.30;;;9.10;;
19804;SDS011;10062;51.052;13.756;2022-12-07T01:26:17;17.77;;;9.67;;
19804;SDS011;10062;51.052;13.756;2022-12-07T01:28:50;16.73;;;9.03;;
19804;SDS011;10062;51.052;13.756;2022-12-07T01:31:25;15.43;;;9.43;;
19804;SDS011;10062;51.052;13.756;2022-12-07T01:33:59;19.17;;;9.40;;
19804;SDS011;10062;51.052;13.756;2022-12-07T01:36:32;19.80;;;10.13;;
19804;SDS011;10062;51.052;13.756;2022-12-07T01:39:06;23.00;;;10.63;;
19804;SDS011;10062;51.052;13.756;2022-12-07T01:41:39;17.73;;;9.73;;
19804;SDS011;10062;51.052;13.756;2022-12-07T01:44:15;22.07;;;10.33;;
19804;SDS011;10062;51.052;13.756;2022-12-07T01:46:54;17.47;;;8.63;;
19804;SDS011;10062;51.052;13.756;2022-12-07T01:49:29;19.27;;;9.77;;
19804;SDS011;10062;51.052;13.756;2022-12-07T01:52:07;18.37;;;9.33;;
19804;SDS011;10062;51.052;13.756;2022-12-07T01:54:44;17.17;;;9.00;;
19804;SDS011;10062;51.052;13.756;2022-12-07T01:57:18;19.07;;;9.00;;
19804;SDS011;10062;51.052;13.756;2022-12-07T01:59:52;16.50;;;9.10;;
19804;SDS011;10062;51.052;13.756;2022-12-07T02:02:26;16.87;;;9.07;;
19804;SDS011;10062;51.052;13.756;2022-12-07T02:05:04;16.17;;;8.40;;
19804;SDS011;10062;51.052;13.756;2022-12-07T02:07:37;16.63;;;8.70;;
19804;SDS011;10062;51.052;13.756;2022-12-07T02:10:13;20.67;;;9.17;;
19804;SDS011;10062;51.052;13.756;2022-12-07T02:12:47;17.47;;;9.03;;
19804;SDS011;10062;51.052;13.756;2022-12-07T02:15:21;18.93;;;8.73;;
19804;SDS011;10062;51.052;13.756;2022-12-07T02:17:59;15.47;;;8.63;;
19804;SDS011;10062;51.052;13.756;2022-12-07T02:20:39;13.47;;;7.83;;
19804;SDS011;10062;51.052;13.756;2022-12-07T02:23:31;14.50;;;7.70;;
19804;SDS011;10062;51.052;13.756;2022-12-07T02:29:24;14.60;;;6.97;;
19804;SDS011;10062;51.052;13.756;2022-12-07T02:32:00;13.50;;;7.07;;
19804;SDS011;10062;51.052;13.756;2022-12-07T02:34:39;13.13;;;6.67;;
19804;SDS011;10062;51.052;13.756;2022-12-07T02:37:19;13.80;;;7.53;;
19804;SDS011;10062;51.052;13.756;2022-12-07T02:40:05;11.83;;;6.37;;
19804;SDS011;10062;51.052;13.756;2022-12-07T02:42:42;12.73;;;7.30;;
19804;SDS011;10062;51.052;13.756;2022-12-07T02:45:20;15.03;;;7.27;;
19804;SDS011;10062;51.052;13.756;2022-12-07T02:47:55;11.60;;;6.60;;
19804;SDS011;10062;51.052;13.756;2022-12-07T02:50:29;13.83;;;7.20;;
19804;SDS011;10062;51.052;13.756;2022-12-07T02:53:01;13.73;;;7.30;;
19804;SDS011;10062;51.052;13.756;2022-12-07T02:55:34;13.53;;;7.60;;
19804;SDS011;10062;51.052;13.756;2022-12-07T02:58:16;11.43;;;6.20;;
19804;SDS011;10062;51.052;13.756;2022-12-07T03:01:02;13.23;;;7.00;;
19804;SDS011;10062;51.052;13.756;2022-12-07T03:03:40;16.87;;;7.50;;
19804;SDS011;10062;51.052;13.756;2022-12-07T03:06:20;13.73;;;7.40;;
19804;SDS011;10062;51.052;13.756;2022-12-07T03:09:00;14.27;;;7.47;;
19804;SDS011;10062;51.052;13.756;2022-12-07T03:11:41;14.60;;;7.63;;
19804;SDS011;10062;51.052;13.756;2022-12-07T03:14:19;14.20;;;7.77;;
19804;SDS011;10062;51.052;13.756;2022-12-07T03:16:57;19.27;;;8.40;;
19804;SDS011;10062;51.052;13.756;2022-12-07T03:19:33;15.63;;;7.57;;
19804;SDS011;10062;51.052;13.756;2022-12-07T03:22:07;13.90;;;8.27;;
19804;SDS011;10062;51.052;13.756;2022-12-07T03:24:42;13.00;;;8.07;;
19804;SDS011;10062;51.052;13.756;2022-12-07T03:27:17;16.97;;;8.43;;
19804;SDS011;10062;51.052;13.756;2022-12-07T03:29:53;14.13;;;7.93;;
19804;SDS011;10062;51.052;13.756;2022-12-07T03:32:29;16.83;;;9.70;;
19804;SDS011;10062;51.052;13.756;2022-12-07T03:35:05;17.47;;;9.33;;
19804;SDS011;10062;51.052;13.756;2022-12-07T03:37:43;15.50;;;9.17;;
19804;SDS011;10062;51.052;13.756;2022-12-07T03:40:19;17.47;;;9.57;;
19804;SDS011;10062;51.052;13.756;2022-12-07T03:42:56;19.63;;;9.77;;
19804;SDS011;10062;51.052;13.756;2022-12-07T03:45:34;18.83;;;9.83;;
19804;SDS011;10062;51.052;13.756;2022-12-07T03:48:14;20.13;;;9.20;;
19804;SDS011;10062;51.052;13.756;2022-12-07T03:50:55;16.23;;;8.67;;
19804;SDS011;10062;51.052;13.756;2022-12-07T03:53:33;19.30;;;11.37;;
19804;SDS011;10062;51.052;13.756;2022-12-07T03:56:09;17.97;;;9.33;;
19804;SDS011;10062;51.052;13.756;2022-12-07T03:58:42;19.67;;;9.90;;
19804;SDS011;10062;51.052;13.756;2022-12-07T04:01:14;14.87;;;6.03;;
19804;SDS011;10062;51.052;13.756;2022-12-07T04:03:49;19.43;;;10.83;;
19804;SDS011;10062;51.052;13.756;2022-12-07T04:06:21;19.93;;;9.37;;
19804;SDS011;10062;51.052;13.756;2022-12-07T04:08:53;18.87;;;9.80;;
19804;SDS011;10062;51.052;13.756;2022-12-07T04:11:25;19.20;;;10.93;;
19804;SDS011;10062;51.052;13.756;2022-12-07T04:13:57;18.93;;;9.57;;
19804;SDS011;10062;51.052;13.756;2022-12-07T04:16:46;18.83;;;9.10;;
19804;SDS011;10062;51.052;13.756;2022-12-07T04:19:20;17.33;;;9.10;;
19804;SDS011;10062;51.052;13.756;2022-12-07T04:21:54;13.77;;;7.00;;
19804;SDS011;10062;51.052;13.756;2022-12-07T04:24:27;19.50;;;9.70;;
19804;SDS011;10062;51.052;13.756;2022-12-07T04:26:59;17.97;;;8.83;;
19804;SDS011;10062;51.052;13.756;2022-12-07T04:29:31;14.53;;;8.37;;
19804;SDS011;10062;51.052;13.756;2022-12-07T04:32:03;16.60;;;8.17;;
19804;SDS011;10062;51.052;13.756;2022-12-07T04:34:36;21.27;;;9.53;;
19804;SDS011;10062;51.052;13.756;2022-12-07T04:37:08;14.73;;;7.83;;
19804;SDS011;10062;51.052;13.756;2022-12-07T04:39:39;17.50;;;8.83;;
19804;SDS011;10062;51.052;13.756;2022-12-07T04:42:13;15.53;;;8.27;;
19804;SDS011;10062;51.052;13.756;2022-12-07T04:44:45;16.27;;;7.43;;
19804;SDS011;10062;51.052;13.756;2022-12-07T04:47:17;19.43;;;10.20;;
19804;SDS011;10062;51.052;13.756;2022-12-07T04:49:50;18.77;;;9.37;;
19804;SDS011;10062;51.052;13.756;2022-12-07T04:52:22;15.03;;;8.03;;
19804;SDS011;10062;51.052;13.756;2022-12-07T04:54:54;16.53;;;7.60;;
19804;SDS011;10062;51.052;13.756;2022-12-07T04:57:26;16.50;;;8.13;;
19804;SDS011;10062;51.052;13.756;2022-12-07T04:59:57;15.87;;;7.57;;
19804;SDS011;10062;51.052;13.756;2022-12-07T05:02:29;17.30;;;8.03;;
19804;SDS011;10062;51.052;13.756;2022-12-07T05:05:02;15.90;;;8.03;;
19804;SDS011;10062;51.052;13.756;2022-12-07T05:07:35;16.07;;;8.40;;
19804;SDS011;10062;51.052;13.756;2022-12-07T05:10:07;15.23;;;8.13;;
19804;SDS011;10062;51.052;13.756;2022-12-07T05:12:39;17.47;;;8.53;;
19804;SDS011;10062;51.052;13.756;2022-12-07T05:15:11;18.90;;;9.53;;
19804;SDS011;10062;51.052;13.756;2022-12-07T05:17:44;25.40;;;12.07;;
19804;SDS011;10062;51.052;13.756;2022-12-07T05:20:17;41.43;;;21.23;;
19804;SDS011;10062;51.052;13.756;2022-12-07T05:22:49;17.20;;;7.60;;
19804;SDS011;10062;51.052;13.756;2022-12-07T05:25:20;18.53;;;8.63;;
19804;SDS011;10062;51.052;13.756;2022-12-07T05:27:53;18.20;;;8.90;;
19804;SDS011;10062;51.052;13.756;2022-12-07T05:30:26;14.17;;;7.20;;
19804;SDS011;10062;51.052;13.756;2022-12-07T05:32:58;14.70;;;7.87;;
19804;SDS011;10062;51.052;13.756;2022-12-07T05:35:31;16.60;;;6.77;;
19804;SDS011;10062;51.052;13.756;2022-12-07T05:38:03;18.90;;;8.20;;
19804;SDS011;10062;51.052;13.756;2022-12-07T05:40:36;13.43;;;7.23;;
19804;SDS011;10062;51.052;13.756;2022-12-07T05:43:08;13.40;;;6.80;;
19804;SDS011;10062;51.052;13.756;2022-12-07T05:45:39;13.63;;;6.60;;
19804;SDS011;10062;51.052;13.756;2022-12-07T05:48:11;14.13;;;6.43;;
19804;SDS011;10062;51.052;13.756;2022-12-07T05:50:44;11.90;;;5.93;;
19804;SDS011;10062;51.052;13.756;2022-12-07T05:53:18;13.47;;;6.40;;
19804;SDS011;10062;51.052;13.756;2022-12-07T05:55:51;12.67;;;6.10;;
19804;SDS011;10062;51.052;13.756;2022-12-07T05:58:23;11.97;;;5.87;;
19804;SDS011;10062;51.052;13.756;2022-12-07T06:01:15;11.17;;;5.40;;
19804;SDS011;10062;51.052;13.756;2022-12-07T06:03:47;10.83;;;5.30;;
19804;SDS011;10062;51.052;13.756;2022-12-07T06:06:20;10.10;;;4.93;;
19804;SDS011;10062;51.052;13.756;2022-12-07T06:08:52;9.13;;;4.67;;
19804;SDS011;10062;51.052;13.756;2022-12-07T06:11:24;12.73;;;6.20;;
19804;SDS011;10062;51.052;13.756;2022-12-07T06:14:13;9.63;;;5.23;;
19804;SDS011;10062;51.052;13.756;2022-12-07T06:16:45;8.90;;;5.33;;
19804;SDS011;10062;51.052;13.756;2022-12-07T06:19:17;6.43;;;3.37;;
19804;SDS011;10062;51.052;13.756;2022-12-07T06:21:50;7.57;;;4.40;;
19804;SDS011;10062;51.052;13.756;2022-12-07T06:24:22;8.83;;;5.43;;
19804;SDS011;10062;51.052;13.756;2022-12-07T06:26:54;7.87;;;4.10;;
19804;SDS011;10062;51.052;13.756;2022-12-07T06:29:26;10.43;;;5.13;;
19804;SDS011;10062;51.052;13.756;2022-12-07T06:31:58;9.43;;;4.93;;
19804;SDS011;10062;51.052;13.756;2022-12-07T06:34:30;10.53;;;4.60;;
19804;SDS011;10062;51.052;13.756;2022-12-07T06:37:03;7.07;;;3.00;;
19804;SDS011;10062;51.052;13.756;2022-12-07T06:39:35;7.83;;;4.00;;
19804;SDS011;10062;51.052;13.756;2022-12-07T06:42:07;9.17;;;4.67;;
19804;SDS011;10062;51.052;13.756;2022-12-07T06:44:39;8.67;;;5.07;;
19804;SDS011;10062;51.052;13.756;2022-12-07T06:47:11;8.17;;;4.07;;
19804;SDS011;10062;51.052;13.756;2022-12-07T06:49:42;7.57;;;3.83;;
19804;SDS011;10062;51.052;13.756;2022-12-07T06:52:15;10.53;;;4.70;;
19804;SDS011;10062;51.052;13.756;2022-12-07T06:54:47;10.80;;;3.63;;
19804;SDS011;10062;51.052;13.756;2022-12-07T06:57:19;7.47;;;4.83;;
19804;SDS011;10062;51.052;13.756;2022-12-07T06:59:51;6.67;;;3.70;;
19804;SDS011;10062;51.052;13.756;2022-12-07T07:02:23;7.90;;;4.60;;
19804;SDS011;10062;51.052;13.756;2022-12-07T07:04:54;7.53;;;4.60;;
19804;SDS011;10062;51.052;13.756;2022-12-07T07:07:28;6.87;;;3.53;;
19804;SDS011;10062;51.052;13.756;2022-12-07T07:10:00;6.20;;;3.33;;
19804;SDS011;10062;51.052;13.756;2022-12-07T07:12:32;6.33;;;3.97;;
19804;SDS011;10062;51.052;13.756;2022-12-07T07:15:04;9.63;;;4.83;;
19804;SDS011;10062;51.052;13.756;2022-12-07T07:17:36;9.33;;;5.17;;
19804;SDS011;10062;51.052;13.756;2022-12-07T07:20:08;11.67;;;6.10;;
19804;SDS011;10062;51.052;13.756;2022-12-07T07:22:42;8.37;;;5.13;;
19804;SDS011;10062;51.052;13.756;2022-12-07T07:25:14;8.77;;;4.60;;
19804;SDS011;10062;51.052;13.756;2022-12-07T07:27:46;8.73;;;5.03;;
19804;SDS011;10062;51.052;13.756;2022-12-07T07:30:18;11.03;;;5.63;;
19804;SDS011;10062;51.052;13.756;2022-12-07T07:32:50;7.93;;;5.17;;
19804;SDS011;10062;51.052;13.756;2022-12-07T07:35:22;9.93;;;5.97;;
19804;SDS011;10062;51.052;13.756;2022-12-07T07:37:55;10.43;;;5.83;;
19804;SDS011;10062;51.052;13.756;2022-12-07T07:40:27;10.63;;;5.70;;
19804;SDS011;10062;51.052;13.756;2022-12-07T07:43:00;10.57;;;6.00;;
19804;SDS011;10062;51.052;13.756;2022-12-07T07:45:31;9.13;;;4.67;;
19804;SDS011;10062;51.052;13.756;2022-12-07T07:48:03;12.17;;;5.30;;
19804;SDS011;10062;51.052;13.756;2022-12-07T07:50:35;11.50;;;5.43;;
19804;SDS011;10062;51.052;13.756;2022-12-07T07:53:08;10.73;;;5.90;;
19804;SDS011;10062;51.052;13.756;2022-12-07T07:55:40;10.93;;;5.80;;
19804;SDS011;10062;51.052;13.756;2022-12-07T07:58:12;8.17;;;3.83;;
19804;SDS011;10062;51.052;13.756;2022-12-07T08:00:44;10.10;;;6.13;;
19804;SDS011;10062;51.052;13.756;2022-12-07T08:03:16;8.57;;;5.10;;
19804;SDS011;10062;51.052;13.756;2022-12-07T08:05:48;10.63;;;6.13;;
19804;SDS011;10062;51.052;13.756;2022-12-07T08:08:22;12.73;;;7.00;;
19804;SDS011;10062;51.052;13.756;2022-12-07T08:10:53;15.10;;;8.47;;
19804;SDS011;10062;51.052;13.756;2022-12-07T08:13:25;13.07;;;7.70;;
19804;SDS011;10062;51.052;13.756;2022-12-07T08:15:58;9.70;;;5.77;;
19804;SDS011;10062;51.052;13.756;2022-12-07T08:18:34;12.20;;;7.63;;
19804;SDS011;10062;51.052;13.756;2022-12-07T08:21:07;12.47;;;7.57;;
19804;SDS011;10062;51.052;13.756;2022-12-07T08:23:43;14.03;;;7.77;;
19804;SDS011;10062;51.052;13.756;2022-12-07T08:26:15;14.20;;;8.70;;
19804;SDS011;10062;51.052;13.756;2022-12-07T08:28:47;13.77;;;7.80;;
19804;SDS011;10062;51.052;13.756;2022-12-07T08:31:19;12.87;;;7.70;;
19804;SDS011;10062;51.052;13.756;2022-12-07T08:33:51;17.73;;;8.53;;
19804;SDS011;10062;51.052;13.756;2022-12-07T08:36:23;14.07;;;6.97;;
19804;SDS011;10062;51.052;13.756;2022-12-07T08:38:57;15.60;;;8.07;;
19804;SDS011;10062;51.052;13.756;2022-12-07T08:41:28;14.20;;;8.53;;
19804;SDS011;10062;51.052;13.756;2022-12-07T08:44:01;12.43;;;7.90;;
19804;SDS011;10062;51.052;13.756;2022-12-07T08:46:33;14.57;;;7.07;;
19804;SDS011;10062;51.052;13.756;2022-12-07T08:49:10;6.90;;;4.13;;
19804;SDS011;10062;51.052;13.756;2022-12-07T08:51:45;6.17;;;3.13;;
19804;SDS011;10062;51.052;13.756;2022-12-07T08:54:19;10.97;;;7.17;;
19804;SDS011;10062;51.052;13.756;2022-12-07T08:56:51;11.00;;;6.80;;
19804;SDS011;10062;51.052;13.756;2022-12-07T08:59:24;13.00;;;7.60;;
19804;SDS011;10062;51.052;13.756;2022-12-07T09:01:57;10.97;;;6.20;;
19804;SDS011;10062;51.052;13.756;2022-12-07T09:04:29;13.70;;;6.97;;
19804;SDS011;10062;51.052;13.756;2022-12-07T09:07:01;13.50;;;6.73;;
19804;SDS011;10062;51.052;13.756;2022-12-07T09:09:35;13.73;;;6.80;;
19804;SDS011;10062;51.052;13.756;2022-12-07T09:12:07;10.53;;;7.13;;
19804;SDS011;10062;51.052;13.756;2022-12-07T09:14:40;11.60;;;6.10;;
19804;SDS011;10062;51.052;13.756;2022-12-07T09:17:12;10.30;;;6.30;;
19804;SDS011;10062;51.052;13.756;2022-12-07T09:19:44;8.67;;;4.87;;
19804;SDS011;10062;51.052;13.756;2022-12-07T09:22:16;11.13;;;6.63;;
19804;SDS011;10062;51.052;13.756;2022-12-07T09:24:49;12.17;;;7.27;;
19804;SDS011;10062;51.052;13.756;2022-12-07T09:27:21;11.77;;;6.40;;
19804;SDS011;10062;51.052;13.756;2022-12-07T09:29:53;9.93;;;6.10;;
19804;SDS011;10062;51.052;13.756;2022-12-07T09:32:25;9.40;;;6.10;;
19804;SDS011;10062;51.052;13.756;2022-12-07T09:34:57;8.60;;;5.13;;
19804;SDS011;10062;51.052;13.756;2022-12-07T09:37:29;12.13;;;5.77;;
19804;SDS011;10062;51.052;13.756;2022-12-07T09:40:04;11.23;;;6.20;;
19804;SDS011;10062;51.052;13.756;2022-12-07T09:42:37;8.53;;;4.10;;
19804;SDS011;10062;51.052;13.756;2022-12-07T09:45:14;8.20;;;5.43;;
19804;SDS011;10062;51.052;13.756;2022-12-07T09:47:49;9.43;;;5.10;;
19804;SDS011;10062;51.052;13.756;2022-12-07T09:50:23;8.30;;;4.73;;
19804;SDS011;10062;51.052;13.756;2022-12-07T09:53:02;9.87;;;5.40;;
19804;SDS011;10062;51.052;13.756;2022-12-07T09:55:40;10.00;;;5.13;;
19804;SDS011;10062;51.052;13.756;2022-12-07T09:58:16;8.83;;;5.07;;
19804;SDS011;10062;51.052;13.756;2022-12-07T10:00:53;7.70;;;4.50;;
19804;SDS011;10062;51.052;13.756;2022-12-07T10:03:28;8.83;;;4.73;;
19804;SDS011;10062;51.052;13.756;2022-12-07T10:06:00;8.40;;;3.93;;
19804;SDS011;10062;51.052;13.756;2022-12-07T10:08:31;10.67;;;4.23;;
19804;SDS011;10062;51.052;13.756;2022-12-07T10:11:05;8.13;;;4.27;;
19804;SDS011;10062;51.052;13.756;2022-12-07T10:13:41;9.60;;;5.00;;
19804;SDS011;10062;51.052;13.756;2022-12-07T10:16:28;9.43;;;4.13;;
19804;SDS011;10062;51.052;13.756;2022-12-07T10:19:17;10.83;;;4.90;;
19804;SDS011;10062;51.052;13.756;2022-12-07T10:22:05;7.00;;;3.63;;
19804;SDS011;10062;51.052;13.756;2022-12-07T10:24:41;7.53;;;4.17;;
19804;SDS011;10062;51.052;13.756;2022-12-07T10:27:30;8.87;;;4.27;;
19804;SDS011;10062;51.052;13.756;2022-12-07T10:30:03;8.27;;;4.57;;
19804;SDS011;10062;51.052;13.756;2022-12-07T10:32:40;9.20;;;4.30;;
19804;SDS011;10062;51.052;13.756;2022-12-07T10:35:19;8.27;;;4.80;;
19804;SDS011;10062;51.052;13.756;2022-12-07T10:37:54;8.90;;;4.07;;
19804;SDS011;10062;51.052;13.756;2022-12-07T10:40:31;9.20;;;4.63;;
19804;SDS011;10062;51.052;13.756;2022-12-07T10:43:17;13.03;;;4.90;;
19804;SDS011;10062;51.052;13.756;2022-12-07T10:46:02;11.70;;;5.30;;
19804;SDS011;10062;51.052;13.756;2022-12-07T10:48:52;9.33;;;4.40;;
19804;SDS011;10062;51.052;13.756;2022-12-07T10:51:32;8.47;;;4.63;;
19804;SDS011;10062;51.052;13.756;2022-12-07T10:54:16;7.10;;;3.60;;
19804;SDS011;10062;51.052;13.756;2022-12-07T10:56:58;12.20;;;5.17;;
19804;SDS011;10062;51.052;13.756;2022-12-07T10:59:46;12.67;;;4.50;;
19804;SDS011;10062;51.052;13.756;2022-12-07T11:02:36;8.50;;;4.40;;
19804;SDS011;10062;51.052;13.756;2022-12-07T11:05:24;8.50;;;4.80;;
19804;SDS011;10062;51.052;13.756;2022-12-07T11:08:01;9.30;;;4.93;;
19804;SDS011;10062;51.052;13.756;2022-12-07T11:10:39;12.80;;;5.60;;
19804;SDS011;10062;51.052;13.756;2022-12-07T11:13:25;8.73;;;4.13;;
19804;SDS011;10062;51.052;13.756;2022-12-07T11:16:04;10.23;;;5.00;;
19804;SDS011;10062;51.052;13.756;2022-12-07T11:18:47;10.60;;;5.37;;
19804;SDS011;10062;51.052;13.756;2022-12-07T11:21:31;10.53;;;4.70;;
19804;SDS011;10062;51.052;13.756;2022-12-07T11:24:13;10.40;;;4.63;;
19804;SDS011;10062;51.052;13.756;2022-12-07T11:26:51;10.97;;;5.23;;
19804;SDS011;10062;51.052;13.756;2022-12-07T11:29:47;10.60;;;4.47;;
19804;SDS011;10062;51.052;13.756;2022-12-07T11:32:31;7.70;;;4.17;;
19804;SDS011;10062;51.052;13.756;2022-12-07T11:35:29;9.33;;;4.20;;
19804;SDS011;10062;51.052;13.756;2022-12-07T11:38:09;10.07;;;5.90;;
19804;SDS011;10062;51.052;13.756;2022-12-07T11:40:46;11.63;;;3.93;;
19804;SDS011;10062;51.052;13.756;2022-12-07T11:43:21;8.90;;;4.27;;
19804;SDS011;10062;51.052;13.756;2022-12-07T11:45:57;11.70;;;4.87;;
19804;SDS011;10062;51.052;13.756;2022-12-07T11:48:37;8.70;;;5.03;;
19804;SDS011;10062;51.052;13.756;2022-12-07T11:51:11;9.07;;;4.27;;
19804;SDS011;10062;51.052;13.756;2022-12-07T11:53:44;9.73;;;4.63;;
19804;SDS011;10062;51.052;13.756;2022-12-07T11:56:20;11.33;;;5.50;;
19804;SDS011;10062;51.052;13.756;2022-12-07T11:58:57;11.23;;;5.07;;
19804;SDS011;10062;51.052;13.756;2022-12-07T12:01:42;10.80;;;5.70;;
19804;SDS011;10062;51.052;13.756;2022-12-07T12:04:32;9.53;;;5.37;;
19804;SDS011;10062;51.052;13.756;2022-12-07T12:07:11;12.10;;;6.07;;
19804;SDS011;10062;51.052;13.756;2022-12-07T12:09:48;8.80;;;5.33;;
19804;SDS011;10062;51.052;13.756;2022-12-07T12:12:29;12.07;;;5.83;;
19804;SDS011;10062;51.052;13.756;2022-12-07T12:15:20;11.57;;;5.80;;
19804;SDS011;10062;51.052;13.756;2022-12-07T12:21:06;11.10;;;6.30;;
19804;SDS011;10062;51.052;13.756;2022-12-07T12:23:40;12.10;;;6.23;;
19804;SDS011;10062;51.052;13.756;2022-12-07T12:26:16;7.50;;;3.33;;
19804;SDS011;10062;51.052;13.756;2022-12-07T12:28:51;12.30;;;5.87;;
19804;SDS011;10062;51.052;13.756;2022-12-07T12:31:31;15.37;;;7.60;;
19804;SDS011;10062;51.052;13.756;2022-12-07T12:37:17;12.13;;;6.50;;
19804;SDS011;10062;51.052;13.756;2022-12-07T12:49:36;4.03;;;2.20;;
19804;SDS011;10062;51.052;13.756;2022-12-07T12:58:45;4.10;;;2.00;;
19804;SDS011;10062;51.052;13.756;2022-12-07T13:01:38;4.70;;;1.73;;
19804;SDS011;10062;51.052;13.756;2022-12-07T13:10:24;3.30;;;1.40;;
19804;SDS011;10062;51.052;13.756;2022-12-07T13:22:35;5.60;;;2.37;;
19804;SDS011;10062;51.052;13.756;2022-12-07T13:25:12;3.37;;;1.60;;
19804;SDS011;10062;51.052;13.756;2022-12-07T13:27:54;3.13;;;1.77;;
19804;SDS011;10062;51.052;13.756;2022-12-07T13:30:32;4.43;;;2.43;;
19804;SDS011;10062;51.052;13.756;2022-12-07T13:33:12;6.83;;;2.57;;
19804;SDS011;10062;51.052;13.756;2022-12-07T13:35:48;4.27;;;2.03;;
19804;SDS011;10062;51.052;13.756;2022-12-07T13:38:28;5.97;;;2.40;;
19804;SDS011;10062;51.052;13.756;2022-12-07T13:41:02;6.17;;;2.93;;
19804;SDS011;10062;51.052;13.756;2022-12-07T13:43:42;7.17;;;3.30;;
19804;SDS011;10062;51.052;13.756;2022-12-07T13:46:14;14.83;;;6.40;;
19804;SDS011;10062;51.052;13.756;2022-12-07T13:48:49;8.33;;;4.13;;
19804;SDS011;10062;51.052;13.756;2022-12-07T13:51:22;7.83;;;3.90;;
19804;SDS011;10062;51.052;13.756;2022-12-07T13:53:55;6.17;;;3.77;;
19804;SDS011;10062;51.052;13.756;2022-12-07T13:56:32;9.77;;;3.77;;
19804;SDS011;10062;51.052;13.756;2022-12-07T13:59:05;7.87;;;4.23;;
19804;SDS011;10062;51.052;13.756;2022-12-07T14:01:44;6.83;;;3.50;;
19804;SDS011;10062;51.052;13.756;2022-12-07T14:04:32;8.10;;;4.60;;
19804;SDS011;10062;51.052;13.756;2022-12-07T14:07:19;10.50;;;4.40;;
19804;SDS011;10062;51.052;13.756;2022-12-07T14:09:59;10.33;;;4.67;;
19804;SDS011;10062;51.052;13.756;2022-12-07T14:12:32;9.17;;;5.03;;
19804;SDS011;10062;51.052;13.756;2022-12-07T14:15:15;11.43;;;4.47;;
19804;SDS011;10062;51.052;13.756;2022-12-07T14:17:53;6.60;;;4.40;;
19804;SDS011;10062;51.052;13.756;2022-12-07T14:20:31;13.97;;;4.87;;
19804;SDS011;10062;51.052;13.756;2022-12-07T14:23:05;7.07;;;4.40;;
19804;SDS011;10062;51.052;13.756;2022-12-07T14:25:53;12.00;;;5.00;;
19804;SDS011;10062;51.052;13.756;2022-12-07T14:28:25;11.63;;;4.93;;
19804;SDS011;10062;51.052;13.756;2022-12-07T14:30:59;12.90;;;5.37;;
19804;SDS011;10062;51.052;13.756;2022-12-07T14:33:32;11.70;;;5.53;;
19804;SDS011;10062;51.052;13.756;2022-12-07T14:36:05;24.20;;;13.23;;
19804;SDS011;10062;51.052;13.756;2022-12-07T14:38:39;12.40;;;6.83;;
19804;SDS011;10062;51.052;13.756;2022-12-07T14:41:12;18.07;;;7.43;;
19804;SDS011;10062;51.052;13.756;2022-12-07T14:44:07;13.43;;;5.00;;
19804;SDS011;10062;51.052;13.756;2022-12-07T14:46:40;8.20;;;4.97;;
19804;SDS011;10062;51.052;13.756;2022-12-07T14:49:12;11.13;;;5.17;;
19804;SDS011;10062;51.052;13.756;2022-12-07T14:51:45;10.37;;;5.40;;
19804;SDS011;10062;51.052;13.756;2022-12-07T14:54:19;13.57;;;5.43;;
19804;SDS011;10062;51.052;13.756;2022-12-07T14:56:54;12.97;;;5.27;;
19804;SDS011;10062;51.052;13.756;2022-12-07T14:59:26;7.73;;;4.70;;
19804;SDS011;10062;51.052;13.756;2022-12-07T15:01:58;7.83;;;4.03;;
19804;SDS011;10062;51.052;13.756;2022-12-07T15:04:29;9.70;;;4.40;;
19804;SDS011;10062;51.052;13.756;2022-12-07T15:07:03;11.10;;;4.70;;
19804;SDS011;10062;51.052;13.756;2022-12-07T15:09:36;7.70;;;4.10;;
19804;SDS011;10062;51.052;13.756;2022-12-07T15:12:08;10.90;;;4.13;;
19804;SDS011;10062;51.052;13.756;2022-12-07T15:14:40;9.10;;;3.90;;
19804;SDS011;10062;51.052;13.756;2022-12-07T15:17:11;8.50;;;4.23;;
19804;SDS011;10062;51.052;13.756;2022-12-07T15:19:43;7.47;;;3.13;;
19804;SDS011;10062;51.052;13.756;2022-12-07T15:22:16;5.50;;;2.70;;
19804;SDS011;10062;51.052;13.756;2022-12-07T15:24:48;5.43;;;2.87;;
19804;SDS011;10062;51.052;13.756;2022-12-07T15:27:20;6.10;;;3.20;;
19804;SDS011;10062;51.052;13.756;2022-12-07T15:29:52;4.50;;;2.60;;
19804;SDS011;10062;51.052;13.756;2022-12-07T15:32:23;7.27;;;2.60;;
19804;SDS011;10062;51.052;13.756;2022-12-07T15:34:55;8.10;;;3.03;;
19804;SDS011;10062;51.052;13.756;2022-12-07T15:37:28;5.17;;;2.77;;
19804;SDS011;10062;51.052;13.756;2022-12-07T15:40:00;5.10;;;2.60;;
19804;SDS011;10062;51.052;13.756;2022-12-07T15:42:32;5.53;;;2.63;;
19804;SDS011;10062;51.052;13.756;2022-12-07T15:45:04;5.70;;;2.60;;
19804;SDS011;10062;51.052;13.756;2022-12-07T15:47:36;15.30;;;3.30;;
19804;SDS011;10062;51.052;13.756;2022-12-07T15:50:11;7.37;;;2.83;;
19804;SDS011;10062;51.052;13.756;2022-12-07T15:52:46;8.07;;;2.60;;
19804;SDS011;10062;51.052;13.756;2022-12-07T15:55:17;7.77;;;3.50;;